createdAt,value
2023-04-02T00:02:33.663Z,7.89
2023-04-02T00:05:43.349Z,7.88
2023-04-02T00:08:44.968Z,7.87
2023-04-02T00:11:48.515Z,7.85
2023-04-02T00:14:54.638Z,7.83
2023-04-02T00:17:57.380Z,7.81
2023-04-02T00:21:08.405Z,7.80
2023-04-02T00:24:21.349Z,7.80
2023-04-02T00:27:26.208Z,7.79
2023-04-02T00:30:28.288Z,7.78
2023-04-02T00:33:46.989Z,7.78
2023-04-02T00:36:49.470Z,7.77
2023-04-02T00:39:53.023Z,7.77
2023-04-02T00:42:58.372Z,7.76
2023-04-02T00:46:08.587Z,7.74
2023-04-02T00:49:23.970Z,7.72
2023-04-02T00:52:28.395Z,7.70
2023-04-02T00:55:37.087Z,7.68
2023-04-02T00:58:40.198Z,7.66
2023-04-02T01:01:41.846Z,7.65
2023-04-02T01:04:52.758Z,7.64
2023-04-02T01:08:21.310Z,7.62
2023-04-02T01:11:41.574Z,7.60
2023-04-02T01:14:57.851Z,7.58
2023-04-02T01:18:11.556Z,7.56
2023-04-02T01:21:19.135Z,7.53
2023-04-02T01:24:21.490Z,7.52
2023-04-02T01:27:29.544Z,7.49
2023-04-02T01:30:33.197Z,7.47
2023-04-02T01:33:35.197Z,7.45
2023-04-02T01:36:39.759Z,7.43
2023-04-02T01:40:19.523Z,7.42
2023-04-02T01:43:51.279Z,7.40
2023-04-02T01:46:52.858Z,7.36
2023-04-02T01:50:19.710Z,7.33
2023-04-02T01:53:23.313Z,7.28
2023-04-02T01:56:26.575Z,7.24
2023-04-02T01:59:28.637Z,7.22
2023-04-02T02:02:30.273Z,7.21
2023-04-02T02:05:32.465Z,7.18
2023-04-02T02:08:40.097Z,7.16
2023-04-02T02:11:41.791Z,7.13
2023-04-02T02:14:48.752Z,7.11
2023-04-02T02:17:51.130Z,7.09
2023-04-02T02:20:53.628Z,7.06
2023-04-02T02:23:55.716Z,7.02
2023-04-02T02:27:23.551Z,6.99
2023-04-02T02:30:48.176Z,6.97
2023-04-02T02:33:51.772Z,6.95
2023-04-02T02:36:59.001Z,6.93
2023-04-02T02:40:01.386Z,6.91
2023-04-02T02:43:04.426Z,6.90
2023-04-02T02:46:08.026Z,6.87
2023-04-02T02:49:17.955Z,6.84
2023-04-02T02:52:23.111Z,6.79
2023-04-02T02:55:28.711Z,6.74
2023-04-02T02:58:31.691Z,6.73
2023-04-02T03:01:33.499Z,6.70
2023-04-02T03:04:36.098Z,6.68
2023-04-02T03:07:38.072Z,6.66
2023-04-02T03:10:45.613Z,6.63
2023-04-02T03:13:49.364Z,6.60
2023-04-02T03:16:56.609Z,6.58
2023-04-02T03:20:03.977Z,6.55
2023-04-02T03:23:27.261Z,6.52
2023-04-02T03:26:52.891Z,6.51
2023-04-02T03:30:27.394Z,6.50
2023-04-02T03:33:41.758Z,6.47
2023-04-02T03:37:02.504Z,6.29
2023-04-02T03:40:05.355Z,5.97
2023-04-02T03:43:18.701Z,5.80
2023-04-02T03:46:31.744Z,5.69
2023-04-02T03:49:43.306Z,5.60
2023-04-02T03:52:45.063Z,5.56
2023-04-02T03:55:46.736Z,5.55
2023-04-02T03:58:50.203Z,5.50
2023-04-02T04:02:27.092Z,5.44
2023-04-02T04:05:44.109Z,5.38
2023-04-02T04:08:48.966Z,5.35
2023-04-02T04:12:17.623Z,5.35
2023-04-02T04:15:22.787Z,5.37
2023-04-02T04:18:45.137Z,5.39
2023-04-02T04:21:46.824Z,5.39
2023-04-02T04:24:48.576Z,5.41
2023-04-02T04:28:11.780Z,5.49
2023-04-02T04:31:22.829Z,5.50
2023-04-02T04:34:35.219Z,5.55
2023-04-02T04:37:39.861Z,5.64
2023-04-02T04:40:49.030Z,5.72
2023-04-02T04:44:04.018Z,5.79
2023-04-02T04:47:15.367Z,5.87
2023-04-02T04:50:29.128Z,5.93
2023-04-02T04:53:31.574Z,6.00
2023-04-02T04:56:33.325Z,6.07
2023-04-02T04:59:52.581Z,6.13
2023-04-02T05:03:06.592Z,6.19
2023-04-02T05:06:32.341Z,6.24
2023-04-02T05:09:52.781Z,6.31
2023-04-02T05:13:17.597Z,6.36
2023-04-02T05:16:24.242Z,6.42
2023-04-02T05:19:46.371Z,6.47
2023-04-02T05:22:53.425Z,6.53
2023-04-02T05:26:06.747Z,6.58
2023-04-02T05:29:16.188Z,6.62
2023-04-02T05:32:23.286Z,6.66
2023-04-02T05:35:31.258Z,6.70
2023-04-02T05:38:35.833Z,6.73
2023-04-02T05:41:43.371Z,6.77
2023-04-02T05:44:57.820Z,6.82
2023-04-02T05:48:01.931Z,6.86
2023-04-02T05:51:06.237Z,6.88
2023-04-02T05:54:17.243Z,6.93
2023-04-02T05:57:29.619Z,6.98
2023-04-02T06:00:51.878Z,7.05
2023-04-02T06:04:06.613Z,7.14
2023-04-02T06:07:16.011Z,7.20
2023-04-02T06:10:25.010Z,7.25
2023-04-02T06:13:27.532Z,7.33
2023-04-02T06:16:30.262Z,7.37
2023-04-02T06:19:37.581Z,7.36
2023-04-02T06:22:40.305Z,7.38
2023-04-02T06:25:49.648Z,7.44
2023-04-02T06:29:14.449Z,7.49
2023-04-02T06:32:16.180Z,7.48
2023-04-02T06:35:17.851Z,7.45
2023-04-02T06:38:24.335Z,7.49
2023-04-02T06:41:25.981Z,7.55
2023-04-02T06:44:30.435Z,7.58
2023-04-02T06:47:37.832Z,7.68
2023-04-02T06:50:55.268Z,7.74
2023-04-02T06:53:56.871Z,7.66
2023-04-02T06:56:59.021Z,7.70
2023-04-02T07:00:01.005Z,7.64
2023-04-02T07:03:06.474Z,7.60
2023-04-02T07:06:17.908Z,7.68
2023-04-02T07:09:19.653Z,7.72
2023-04-02T07:12:25.229Z,7.67
2023-04-02T07:15:26.776Z,7.76
2023-04-02T07:18:31.859Z,7.78
2023-04-02T07:21:33.408Z,7.80
2023-04-02T07:24:34.985Z,7.95
2023-04-02T07:27:36.570Z,8.05
2023-04-02T07:30:38.284Z,8.11
2023-04-02T07:33:41.185Z,8.17
2023-04-02T07:36:43.654Z,8.26
2023-04-02T07:39:45.324Z,8.42
2023-04-02T07:42:46.843Z,8.54
2023-04-02T07:45:50.407Z,8.56
2023-04-02T07:48:52.080Z,8.65
2023-04-02T07:51:53.678Z,8.67
2023-04-02T07:54:55.329Z,8.59
2023-04-02T07:57:58.965Z,8.64
2023-04-02T08:01:01.445Z,8.75
2023-04-02T08:04:04.605Z,8.90
2023-04-02T08:07:06.224Z,9.05
2023-04-02T08:10:10.394Z,9.19
2023-04-02T08:13:12.045Z,9.36
2023-04-02T08:16:13.784Z,9.50
2023-04-02T08:19:15.470Z,9.59
2023-04-02T08:22:17.012Z,9.65
2023-04-02T08:25:18.573Z,9.72
2023-04-02T08:28:21.650Z,9.80
2023-04-02T08:31:23.350Z,9.88
2023-04-02T08:34:25.698Z,9.93
2023-04-02T08:37:27.306Z,9.93
2023-04-02T08:40:39.795Z,9.90
2023-04-02T08:44:09.408Z,9.83
2023-04-02T08:47:13.736Z,9.69
2023-04-02T08:50:36.552Z,9.60
2023-04-02T08:53:39.078Z,9.51
2023-04-02T08:56:44.360Z,9.44
2023-04-02T08:59:46.169Z,9.36
2023-04-02T09:02:55.167Z,9.29
2023-04-02T09:05:58.860Z,9.20
2023-04-02T09:09:00.606Z,9.10
2023-04-02T09:12:02.934Z,9.04
2023-04-02T09:15:10.933Z,8.95
2023-04-02T09:18:19.554Z,8.88
2023-04-02T09:21:21.257Z,8.79
2023-04-02T09:24:22.850Z,8.67
2023-04-02T09:27:30.244Z,8.56
2023-04-02T09:30:31.749Z,8.48
2023-04-02T09:33:46.435Z,8.40
2023-04-02T09:36:48.144Z,8.20
2023-04-02T09:39:49.941Z,7.92
2023-04-02T09:43:12.757Z,7.57
2023-04-02T09:46:24.932Z,7.36
2023-04-02T09:49:29.346Z,7.32
2023-04-02T09:52:31.025Z,7.28
2023-04-02T09:55:32.610Z,7.28
2023-04-02T09:58:34.113Z,7.29
2023-04-02T10:01:38.274Z,7.31
2023-04-02T10:04:43.583Z,7.25
2023-04-02T10:07:49.749Z,7.10
2023-04-02T10:10:53.281Z,6.82
2023-04-02T10:13:59.387Z,6.59
2023-04-02T10:17:22.655Z,6.42
2023-04-02T10:20:27.063Z,6.29
2023-04-02T10:23:30.717Z,6.24
2023-04-02T10:26:38.329Z,6.26
2023-04-02T10:30:05.366Z,6.28
2023-04-02T10:33:15.364Z,6.23
2023-04-02T10:36:41.839Z,6.22
2023-04-02T10:39:47.827Z,6.20
2023-04-02T10:43:19.394Z,6.16
2023-04-02T10:46:28.583Z,6.08
2023-04-02T10:49:41.379Z,6.04
2023-04-02T10:52:48.549Z,6.01
2023-04-02T10:55:56.482Z,5.95
2023-04-02T10:59:21.500Z,5.85
2023-04-02T11:02:46.501Z,5.75
2023-04-02T11:05:53.935Z,5.67
2023-04-02T11:09:02.751Z,5.56
2023-04-02T11:12:05.235Z,5.45
2023-04-02T11:15:17.123Z,5.37
2023-04-02T11:18:27.340Z,5.25
2023-04-02T11:21:59.656Z,5.20
2023-04-02T11:25:02.994Z,5.21
2023-04-02T11:28:29.887Z,5.25
2023-04-02T11:31:31.669Z,5.21
2023-04-02T11:34:42.504Z,5.07
2023-04-02T11:37:45.318Z,4.98
2023-04-02T11:40:51.632Z,4.87
2023-04-02T11:44:00.588Z,4.77
2023-04-02T11:47:25.219Z,4.70
2023-04-02T11:50:52.945Z,4.66
2023-04-02T11:53:54.889Z,4.66
2023-04-02T11:57:01.810Z,4.70
2023-04-02T12:00:06.562Z,4.77
2023-04-02T12:03:17.299Z,4.78
2023-04-02T12:06:38.466Z,4.81
2023-04-02T12:09:52.990Z,4.95
2023-04-02T12:12:54.548Z,5.02
2023-04-02T12:15:57.023Z,5.06
2023-04-02T12:18:59.515Z,5.02
2023-04-02T12:22:01.761Z,4.98
2023-04-02T12:25:18.334Z,4.96
2023-04-02T12:28:21.526Z,4.93
2023-04-02T12:31:24.552Z,4.92
2023-04-02T12:34:28.946Z,4.88
2023-04-02T12:37:30.973Z,4.84
2023-04-02T12:40:32.518Z,4.72
2023-04-02T12:43:35.014Z,4.55
2023-04-02T12:46:36.626Z,4.42
2023-04-02T12:49:39.230Z,4.34
2023-04-02T12:52:44.969Z,4.32
2023-04-02T12:55:48.728Z,4.36
2023-04-02T12:58:58.526Z,4.37
2023-04-02T13:02:03.838Z,4.31
2023-04-02T13:05:05.604Z,4.28
2023-04-02T13:08:07.104Z,4.33
2023-04-02T13:11:09.201Z,4.34
2023-04-02T13:14:19.220Z,4.31
2023-04-02T13:17:42.293Z,4.27
2023-04-02T13:20:55.074Z,4.22
2023-04-02T13:23:56.629Z,4.19
2023-04-02T13:26:59.151Z,4.20
2023-04-02T13:30:08.298Z,4.19
2023-04-02T13:33:09.934Z,4.18
2023-04-02T13:36:14.636Z,4.13
2023-04-02T13:39:16.322Z,4.06
2023-04-02T13:42:17.882Z,4.03
2023-04-02T13:45:28.048Z,4.00
2023-04-02T13:48:29.781Z,3.98
2023-04-02T13:51:35.723Z,3.95
2023-04-02T13:54:46.963Z,3.92
2023-04-02T13:57:48.637Z,3.91
2023-04-02T14:00:50.341Z,3.95
2023-04-02T14:03:53.424Z,3.95
2023-04-02T14:07:14.010Z,3.94
2023-04-02T14:10:43.841Z,3.96
2023-04-02T14:14:06.580Z,4.00
2023-04-02T14:17:37.484Z,4.03
2023-04-02T14:20:48.704Z,4.06
2023-04-02T14:24:08.900Z,4.06
2023-04-02T14:27:32.709Z,4.04
2023-04-02T14:31:02.141Z,3.99
2023-04-02T14:34:32.218Z,3.94
2023-04-02T14:37:45.890Z,3.94
2023-04-02T14:40:50.056Z,3.93
2023-04-02T14:43:54.791Z,3.88
2023-04-02T14:47:02.220Z,3.85
2023-04-02T14:50:12.809Z,3.78
2023-04-02T14:53:20.145Z,3.76
2023-04-02T14:56:24.205Z,3.72
2023-04-02T14:59:29.072Z,3.68
2023-04-02T15:02:41.422Z,3.68
2023-04-02T15:05:49.743Z,3.68
2023-04-02T15:09:09.314Z,3.70
2023-04-02T15:12:23.996Z,3.68
2023-04-02T15:15:39.357Z,3.66
2023-04-02T15:18:42.315Z,3.62
2023-04-02T15:22:02.180Z,3.53
2023-04-02T15:25:13.659Z,3.46
2023-04-02T15:28:26.999Z,3.42
2023-04-02T15:31:28.720Z,3.36
2023-04-02T15:34:33.293Z,3.35
2023-04-02T15:37:44.188Z,3.32
2023-04-02T15:40:48.714Z,3.27
2023-04-02T15:44:22.621Z,3.20
2023-04-02T15:47:59.444Z,3.08
2023-04-02T15:51:15.140Z,3.00
2023-04-02T15:54:37.063Z,2.95
2023-04-02T15:57:57.467Z,2.89
2023-04-02T16:01:17.694Z,2.86
2023-04-02T16:04:25.594Z,2.81
2023-04-02T16:07:56.423Z,2.77
2023-04-02T16:10:58.047Z,2.73
2023-04-02T16:14:18.363Z,2.68
2023-04-02T16:17:25.870Z,2.64
2023-04-02T16:20:40.502Z,2.60
2023-04-02T16:23:42.359Z,2.55
2023-04-02T16:26:59.225Z,2.52
2023-04-02T16:30:16.554Z,2.51
2023-04-02T16:33:25.822Z,2.48
2023-04-02T16:36:50.615Z,2.48
2023-04-02T16:40:28.868Z,2.49
2023-04-02T16:43:38.586Z,2.50
2023-04-02T16:46:52.313Z,2.53
2023-04-02T16:50:02.918Z,2.55
2023-04-02T16:53:15.562Z,2.57
2023-04-02T16:56:49.618Z,2.60
2023-04-02T17:00:09.638Z,2.60
2023-04-02T17:03:20.400Z,2.59
2023-04-02T17:06:32.072Z,2.58
2023-04-02T17:09:49.670Z,2.56
2023-04-02T17:13:02.919Z,2.57
2023-04-02T17:16:19.020Z,2.56
2023-04-02T17:19:21.082Z,2.53
2023-04-02T17:22:23.082Z,2.51
2023-04-02T17:25:28.499Z,2.44
2023-04-02T17:28:32.575Z,2.37
2023-04-02T17:31:34.804Z,2.32
2023-04-02T17:34:36.555Z,2.27
2023-04-02T17:37:43.390Z,2.22
2023-04-02T17:41:14.540Z,2.17
2023-04-02T17:44:25.233Z,2.09
2023-04-02T17:48:11.726Z,2.05
2023-04-02T17:51:42.764Z,1.98
2023-04-02T17:54:50.436Z,1.92
2023-04-02T17:57:57.943Z,1.85
2023-04-02T18:01:41.917Z,1.80
2023-04-02T18:05:12.027Z,1.76
2023-04-02T18:08:25.947Z,1.71
2023-04-02T18:11:52.781Z,1.69
2023-04-02T18:15:06.882Z,1.67
2023-04-02T18:18:19.333Z,1.65
2023-04-02T18:21:24.193Z,1.65
2023-04-02T18:25:00.643Z,1.63
2023-04-02T18:28:12.366Z,1.64
2023-04-02T18:31:27.039Z,1.64
2023-04-02T18:34:44.077Z,1.65
2023-04-02T18:37:58.757Z,1.64
2023-04-02T18:41:21.964Z,1.62
2023-04-02T18:44:35.484Z,1.59
2023-04-02T18:47:46.388Z,1.55
2023-04-02T18:50:48.795Z,1.47
2023-04-02T18:54:09.598Z,1.43
2023-04-02T18:57:15.742Z,1.35
2023-04-02T19:00:40.512Z,1.23
2023-04-02T19:03:49.555Z,1.12
2023-04-02T19:06:55.172Z,1.01
2023-04-02T19:10:03.045Z,0.96
2023-04-02T19:13:15.869Z,0.92
2023-04-02T19:16:25.357Z,0.88
2023-04-02T19:19:29.504Z,0.85
2023-04-02T19:22:50.063Z,0.79
2023-04-02T19:26:05.263Z,0.77
2023-04-02T19:29:35.153Z,0.82
2023-04-02T19:32:45.837Z,0.87
2023-04-02T19:35:53.968Z,0.94
2023-04-02T19:39:01.393Z,1.01
2023-04-02T19:42:16.564Z,1.06
2023-04-02T19:45:37.684Z,1.16
2023-04-02T19:49:00.589Z,1.21
2023-04-02T19:52:02.469Z,1.28
2023-04-02T19:55:04.464Z,1.34
2023-04-02T19:58:18.895Z,1.34
2023-04-02T20:01:21.574Z,1.37
2023-04-02T20:04:23.363Z,1.41
2023-04-02T20:07:25.267Z,1.42
2023-04-02T20:10:26.809Z,1.44
2023-04-02T20:13:29.055Z,1.46
2023-04-02T20:16:30.679Z,1.44
2023-04-02T20:19:32.292Z,1.42
2023-04-02T20:22:33.944Z,1.38
2023-04-02T20:25:35.636Z,1.29
2023-04-02T20:28:37.155Z,1.17
2023-04-02T20:31:38.727Z,1.00
2023-04-02T20:34:44.610Z,0.80
2023-04-02T20:37:46.164Z,0.64
2023-04-02T20:40:47.749Z,0.53
2023-04-02T20:43:50.635Z,0.46
2023-04-02T20:46:52.249Z,0.42
2023-04-02T20:49:53.901Z,0.42
2023-04-02T20:52:58.128Z,0.42
2023-04-02T20:56:04.764Z,0.44
2023-04-02T20:59:06.465Z,0.44
2023-04-02T21:02:09.322Z,0.41
2023-04-02T21:05:10.925Z,0.39
2023-04-02T21:08:12.648Z,0.35
2023-04-02T21:11:14.828Z,0.31
2023-04-02T21:14:17.164Z,0.28
2023-04-02T21:17:18.835Z,0.26
2023-04-02T21:20:20.540Z,0.27
2023-04-02T21:23:22.301Z,0.28
2023-04-02T21:26:24.293Z,0.31
2023-04-02T21:29:25.843Z,0.35
2023-04-02T21:32:27.501Z,0.38
2023-04-02T21:35:28.984Z,0.42
2023-04-02T21:38:30.512Z,0.46
2023-04-02T21:41:37.739Z,0.49
2023-04-02T21:44:39.381Z,0.53
2023-04-02T21:47:40.951Z,0.57
2023-04-02T21:50:42.511Z,0.63
2023-04-02T21:53:44.965Z,0.67
2023-04-02T21:56:47.574Z,0.70
2023-04-02T21:59:49.188Z,0.74
2023-04-02T22:02:50.881Z,0.77
2023-04-02T22:06:09.522Z,0.82
2023-04-02T22:09:13.655Z,0.87
2023-04-02T22:12:15.221Z,0.92
2023-04-02T22:15:17.040Z,0.95
2023-04-02T22:18:18.483Z,0.98
2023-04-02T22:21:20.485Z,1.01
2023-04-02T22:24:22.152Z,1.03
2023-04-02T22:27:23.709Z,1.04
2023-04-02T22:30:25.335Z,1.08
2023-04-02T22:33:27.061Z,1.08
2023-04-02T22:36:29.553Z,1.09
2023-04-02T22:39:31.300Z,1.07
2023-04-02T22:42:33.519Z,1.05
2023-04-02T22:45:35.046Z,1.02
2023-04-02T22:48:37.026Z,0.98
2023-04-02T22:51:38.642Z,0.96
2023-04-02T22:54:40.231Z,0.93
2023-04-02T22:57:42.826Z,0.88
2023-04-02T23:00:45.089Z,0.83
2023-04-02T23:03:46.704Z,0.82
2023-04-02T23:06:48.446Z,0.80
2023-04-02T23:09:49.979Z,0.81
2023-04-02T23:12:51.673Z,0.82
2023-04-02T23:15:53.545Z,0.83
2023-04-02T23:18:55.393Z,0.88
2023-04-02T23:21:57.284Z,0.90
2023-04-02T23:24:58.922Z,0.93
2023-04-02T23:28:00.463Z,0.96
2023-04-02T23:31:03.390Z,0.98
2023-04-02T23:34:05.033Z,0.99
2023-04-02T23:37:06.545Z,1.00
2023-04-02T23:40:09.068Z,0.96
2023-04-02T23:43:10.627Z,0.89
2023-04-02T23:46:12.308Z,0.77
2023-04-02T23:49:13.963Z,0.68
2023-04-02T23:52:15.599Z,0.59
2023-04-02T23:55:17.267Z,0.51
2023-04-02T23:58:18.765Z,0.47
